Terminal Aerodrome Forecast
Issued by NWS

Home | Current Version | Previous Version | Text Only | Print | Product List | Glossary On
Versions: 1 2 3 4 5 6 7 8 9 10 11 12 13 14 15 16 17 18 19 20 21 22 23 24 25 26 27
000
FTUS41 KOKX 271917 AAA
TAFSWF
TAF AMD
KSWF 271917Z 2719/2824 08010G18KT 6SM -DZ BR SCT009 OVC012
     FM272300 07010KT 5SM BR OVC010
     FM280400 04004KT 4SM BR OVC008
     FM281300 VRB02KT 6SM BR SCT008 BKN010
     FM281500 16004KT P6SM BKN015
     FM281800 19006KT P6SM BKN030
     FM282100 21010KT P6SM SCT030 SCT250
      AMD NOT SKED=

USA.gov is the U.S. government's official web portal to all federal, state and local government web resources and services.